Strona główna
METAR-TAF:

METAR-TAF

Lotnisko :

Port lotniczy Phrae

Phrae, Tajlandia

Szerokość geograficzna: 18-10N, Długość geograficzna: 100-10E, wysokość: 161 m

Aktualna obserwacja pogody

Raport powstał 18 minut temu, godzina 05:00 UTC
Wiatr 6 kt od północ, zmienny między zachodnio-północny zachód i wschód
Temperatura 27°C
Wilgotność 32%
Ciśnienie 1021 hPa
Widzialność 10 km lub więcej
Brak chmur poniżej 1500 m i brak chmur cumulonimbus

METAR: VTCP 070500Z 01006KT 290V090 CAVOK 27/09 Q1021 NOSIG

czas: 12:18 (05:18 UTC)

Prognoza

Raport powstał 6 godziny i 18 minut temu, godzina 23:00 UTC
Prognoza ważna od 07 godzina 00 UTC do 07 godzina 24 UTC
Wiatr 5 kt od północno-północny wschód
Widzialność 10 km lub więcej
Mało chmury na wysokości 3500 ft

TAF: VTCP 062300Z 0700/0724 03005KT 9999 FEW035

Obserwacja i prognoza pogody dla ponad 4000 lotnisk (raport METAR i TAF).

Dostępne stacje oznaczono żółtymi i czerwonymi punktami na mapie.

Najedź kursorem aby zobaczyć nazwę stacji.

Kliknij aby zobaczyć obserwacje i prognozy pogody.

Aby zmienić mapę: kliknij na zielony przycisk z czarnym krzyżykiem, aby powiększyć; na zielony przycisk z myślnikiem, aby pomniejszyć; na zielone strzałki, aby przejść do map sąsiednich.


METAR-TAF: